Time;durP1;ratioP1;P1;durP2;ratioP2;P2;SDS_P1;SDS_P2;PMS_P1;PMS_P2;Temp;Humidity;BMP_temperature;BMP_pressure;BME280_temperature;BME280_humidity;BME280_pressure;Samples;Min_cycle;Max_cycle;Signal;HPM_P1;HPM_P2
2022/09/22 00:01:09;;;;;;;27.60;24.63;;;;;;;5.76;100.00;102516.44;6097326;23;20026;-77
2022/09/22 00:03:36;;;;;;;38.42;24.95;;;;;;;5.59;100.00;102484.25;6097163;23;20011;-77
2022/09/22 00:06:10;;;;;;;27.02;22.92;;;;;;;5.71;100.00;102512.28;6097056;23;20006;-78
2022/09/22 00:08:38;;;;;;;29.98;24.92;;;;;;;5.66;100.00;102512.34;6097362;23;20003;-75
2022/09/22 00:11:05;;;;;;;34.00;25.48;;;;;;;5.60;100.00;102496.19;6096735;23;20013;-76
2022/09/22 00:13:32;;;;;;;27.17;23.08;;;;;;;5.66;100.00;102508.94;6097195;23;20433;-77
2022/09/22 00:16:06;;;;;;;29.90;24.42;;;;;;;5.64;100.00;102510.66;6096872;23;19999;-77
2022/09/22 00:18:31;;;;;;;29.77;25.65;;;;;;;5.52;100.00;102492.94;6097049;23;20007;-77
2022/09/22 00:20:56;;;;;;;30.00;25.95;;;;;;;5.61;100.00;102503.03;6097173;23;20021;-77
2022/09/22 00:23:26;;;;;;;30.90;26.13;;;;;;;5.45;100.00;102480.19;6096915;23;20480;-77
2022/09/22 00:25:51;;;;;;;32.92;27.15;;;;;;;5.45;100.00;102485.31;6097178;23;20349;-77
2022/09/22 00:28:20;;;;;;;33.88;28.17;;;;;;;5.55;100.00;102508.25;6096881;23;20129;-77
2022/09/22 00:30:46;;;;;;;33.63;29.25;;;;;;;5.52;100.00;102506.59;6097189;23;20013;-77
2022/09/22 00:33:11;;;;;;;36.28;29.38;;;;;;;5.51;100.00;102501.50;6097029;23;20344;-77
2022/09/22 00:35:37;;;;;;;35.20;29.67;;;;;;;5.50;100.00;102502.34;6097112;23;20050;-78
2022/09/22 00:38:07;;;;;;;37.85;29.23;;;;;;;5.53;100.00;102507.44;6096105;23;20010;-77
2022/09/22 00:40:34;;;;;;;35.35;29.08;;;;;;;5.50;100.00;102510.03;6070836;23;20082;-77
2022/09/22 00:43:15;;;;;;;35.88;28.13;;;;;;;5.47;100.00;102504.06;6096376;23;20021;-77
2022/09/22 00:45:41;;;;;;;33.05;27.85;;;;;;;5.38;100.00;102496.53;6099044;23;20002;-77
2022/09/22 00:48:07;;;;;;;32.30;27.38;;;;;;;5.37;100.00;102497.41;6098857;23;20006;-77
2022/09/22 00:50:32;;;;;;;33.40;26.60;;;;;;;5.18;100.00;102462.66;6098587;23;20084;-76
2022/09/22 00:53:09;;;;;;;35.22;27.25;;;;;;;5.36;100.00;102500.84;6098882;23;20061;-76
2022/09/22 00:55:45;;;;;;;33.80;26.95;;;;;;;5.26;100.00;102481.34;6098864;23;20010;-77
2022/09/22 00:58:19;;;;;;;34.50;27.20;;;;;;;5.19;100.00;102472.03;6099248;23;20010;-75
2022/09/22 01:00:45;;;;;;;34.15;26.42;;;;;;;5.29;100.00;102491.53;6098821;23;20029;-76
2022/09/22 01:03:15;;;;;;;30.40;26.60;;;;;;;5.27;100.00;102488.16;6099069;23;20049;-76
2022/09/22 01:05:43;;;;;;;31.45;26.35;;;;;;;5.21;100.00;102474.56;6073171;23;20314;-77
2022/09/22 01:08:10;;;;;;;33.13;28.25;;;;;;;5.24;100.00;102474.56;6099026;23;20006;-76
2022/09/22 01:10:36;;;;;;;32.53;26.55;;;;;;;5.24;100.00;102477.13;6098607;23;20006;-77
2022/09/22 01:13:01;;;;;;;34.30;27.55;;;;;;;5.21;100.00;102475.44;6073243;23;20538;-77
2022/09/22 01:15:43;;;;;;;34.15;26.85;;;;;;;4.92;100.00;102429.78;6098823;23;20013;-77
2022/09/22 01:18:19;;;;;;;35.88;27.80;;;;;;;5.06;100.00;102448.34;6098867;23;20012;-78
2022/09/22 01:21:31;;;;;;;36.33;27.17;;;;;;;5.17;100.00;102468.66;6098647;23;20074;-77
2022/09/22 01:24:14;;;;;;;31.75;26.63;;;;;;;5.15;100.00;102467.84;5981973;24;20160;-76
2022/09/22 01:27:03;;;;;;;32.80;26.33;;;;;;;5.13;100.00;102464.47;5981676;24;20012;-77
2022/09/22 01:29:53;;;;;;;32.72;26.45;;;;;;;4.94;100.00;102427.19;5982052;24;20008;-76
2022/09/22 01:32:30;;;;;;;33.30;27.73;;;;;;;4.98;100.00;102446.75;5981714;24;20309;-75
2022/09/22 01:35:03;;;;;;;30.17;25.42;;;;;;;5.07;100.00;102454.31;5982021;24;20019;-76
2022/09/22 01:37:40;;;;;;;32.33;25.58;;;;;;;4.96;100.00;102445.91;5981899;24;20087;-76
2022/09/22 01:40:15;;;;;;;30.42;25.63;;;;;;;5.06;100.00;102460.28;5982106;24;20040;-77
2022/09/22 01:42:51;;;;;;;30.27;24.80;;;;;;;4.89;100.00;102435.75;5981647;24;20432;-77
2022/09/22 01:45:21;;;;;;;30.60;24.50;;;;;;;5.00;100.00;102457.81;5981866;24;20016;-74
2022/09/22 01:47:52;;;;;;;30.15;24.08;;;;;;;4.99;100.00;102449.28;5981730;24;20019;-76
2022/09/22 01:50:25;;;;;;;30.17;24.83;;;;;;;4.91;100.00;102445.97;5982014;24;20091;-75
2022/09/22 01:52:54;;;;;;;30.42;24.85;;;;;;;4.92;100.00;102452.81;5981618;24;20012;-75
2022/09/22 01:55:34;;;;;;;31.40;24.27;;;;;;;4.88;100.00;102441.75;5981594;24;20328;-75
2022/09/22 01:58:13;;;;;;;30.75;24.50;;;;;;;4.75;100.00;102421.47;5981469;24;20067;-76
2022/09/22 02:00:48;;;;;;;32.55;24.80;;;;;;;4.89;100.00;102440.03;6095751;23;20065;-75
2022/09/22 02:03:23;;;;;;;31.27;25.70;;;;;;;4.76;100.00;102420.59;6098278;23;20017;-76
2022/09/22 02:05:55;;;;;;;31.48;25.38;;;;;;;4.85;100.00;102435.84;6072634;23;20011;-76
2022/09/22 02:08:34;;;;;;;33.42;27.02;;;;;;;4.79;100.00;102428.22;6098400;23;20425;-76
2022/09/22 02:11:08;;;;;;;31.25;25.80;;;;;;;4.59;100.00;102396.06;6097935;23;20317;-76
2022/09/22 02:13:34;;;;;;;30.95;26.13;;;;;;;4.63;100.00;102398.59;6072630;23;20447;-75
2022/09/22 02:16:00;;;;;;;31.67;25.52;;;;;;;4.72;100.00;102418.94;6097778;23;20006;-75
2022/09/22 02:18:43;;;;;;;30.92;26.10;;;;;;;4.74;100.00;102418.06;6098022;23;20007;-76
2022/09/22 02:21:10;;;;;;;31.02;24.95;;;;;;;4.67;100.00;102413.88;6098215;23;20007;-76
2022/09/22 02:23:36;;;;;;;28.73;24.40;;;;;;;4.77;100.00;102423.13;6098056;23;20377;-77
2022/09/22 02:26:05;;;;;;;30.17;23.75;;;;;;;4.71;100.00;102415.53;6097983;23;20002;-76
2022/09/22 02:28:35;;;;;;;29.00;24.65;;;;;;;4.71;100.00;102414.69;6097427;23;20540;-76
2022/09/22 02:31:03;;;;;;;28.65;24.50;;;;;;;4.69;100.00;102411.31;6098046;23;20094;-76
2022/09/22 02:33:32;;;;;;;28.35;23.88;;;;;;;4.67;100.00;102413.03;6097756;23;20306;-76
2022/09/22 02:36:16;;;;;;;29.90;23.98;;;;;;;4.63;100.00;102409.69;6098276;23;20002;-76
2022/09/22 02:38:52;;;;;;;29.60;24.33;;;;;;;4.49;100.00;102389.38;6097869;23;20310;-76
2022/09/22 02:41:41;;;;;;;30.70;24.10;;;;;;;4.49;100.00;102388.53;6097507;23;20123;-76
2022/09/22 02:44:14;;;;;;;28.48;22.52;;;;;;;4.59;100.00;102408.00;6096480;23;20090;-76
2022/09/22 02:46:45;;;;;;;26.02;23.00;;;;;;;4.57;100.00;102402.06;6071751;23;20374;-77
2022/09/22 02:49:17;;;;;;;30.47;23.40;;;;;;;4.56;100.00;102401.22;6098081;23;20010;-76
2022/09/22 02:51:45;;;;;;;32.53;24.67;;;;;;;4.51;100.00;102399.59;6097825;23;20010;-76
2022/09/22 02:54:13;;;;;;;32.65;26.13;;;;;;;4.54;100.00;102395.28;6097677;23;20006;-76
2022/09/22 02:56:39;;;;;;;31.95;25.73;;;;;;;4.52;100.00;102396.16;6097380;23;20060;-75
2022/09/22 02:59:04;;;;;;;34.70;26.27;;;;;;;4.47;100.00;102395.38;6097660;23;20006;-76
2022/09/22 03:01:30;;;;;;;32.17;26.48;;;;;;;4.46;100.00;102396.25;6097541;23;20007;-76
2022/09/22 03:03:55;;;;;;;32.00;25.73;;;;;;;4.46;100.00;102394.53;6097480;23;20002;-76
2022/09/22 03:06:20;;;;;;;33.65;26.98;;;;;;;4.46;100.00;102396.25;6071167;23;20014;-76
2022/09/22 03:08:46;;;;;;;31.50;24.88;;;;;;;4.36;100.00;102377.63;6097568;23;20030;-75
2022/09/22 03:11:11;;;;;;;36.13;26.48;;;;;;;4.43;100.00;102396.31;6097138;23;20009;-77
2022/09/22 03:13:36;;;;;;;33.65;25.65;;;;;;;4.41;100.00;102391.19;6097596;23;20003;-76
2022/09/22 03:16:02;;;;;;;31.95;25.15;;;;;;;4.40;100.00;102391.19;6097573;23;20009;-75
2022/09/22 03:18:27;;;;;;;33.00;26.38;;;;;;;4.25;100.00;102374.34;6097334;23;20033;-76
2022/09/22 03:20:52;;;;;;;30.92;25.20;;;;;;;4.35;100.00;102390.44;6097368;23;20336;-76
2022/09/22 03:23:18;;;;;;;33.25;25.80;;;;;;;4.34;100.00;102383.63;6097404;23;20443;-76
2022/09/22 03:25:43;;;;;;;32.95;25.40;;;;;;;4.34;100.00;102389.59;6097200;23;20020;-75
2022/09/22 03:28:08;;;;;;;32.88;26.65;;;;;;;4.34;100.00;102392.13;6096858;23;20003;-75
2022/09/22 03:30:35;;;;;;;31.70;26.55;;;;;;;4.31;100.00;102379.38;6097427;23;20006;-75
2022/09/22 03:33:01;;;;;;;31.42;25.70;;;;;;;4.21;100.00;102370.13;6097291;23;20030;-76
2022/09/22 03:35:26;;;;;;;32.92;26.70;;;;;;;4.30;100.00;102387.91;6070693;23;20057;-75
2022/09/22 03:37:52;;;;;;;32.08;27.15;;;;;;;4.18;100.00;102352.25;6097444;23;20054;-75
2022/09/22 03:40:17;;;;;;;31.60;25.52;;;;;;;4.29;100.00;102378.56;6070707;23;20006;-76
2022/09/22 03:42:43;;;;;;;33.97;25.80;;;;;;;4.27;100.00;102381.13;6070902;23;20017;-75
2022/09/22 03:45:09;;;;;;;38.97;26.67;;;;;;;4.23;100.00;102376.94;6097224;23;20007;-75
2022/09/22 03:47:34;;;;;;;33.60;25.88;;;;;;;4.26;100.00;102379.44;6097455;23;20007;-75
2022/09/22 03:49:59;;;;;;;31.95;26.77;;;;;;;4.19;100.00;102367.59;6097468;23;20003;-75
2022/09/22 03:52:25;;;;;;;32.90;26.05;;;;;;;4.24;100.00;102378.63;6097035;23;20037;-76
2022/09/22 03:54:51;;;;;;;32.92;25.83;;;;;;;4.16;100.00;102370.19;6071159;23;20011;-75
2022/09/22 03:57:16;;;;;;;33.95;27.52;;;;;;;4.11;100.00;102359.16;6097495;23;20030;-78
2022/09/22 03:59:41;;;;;;;33.05;26.13;;;;;;;4.23;100.00;102373.53;6096912;23;20003;-76
2022/09/22 04:02:07;;;;;;;31.02;25.23;;;;;;;4.21;100.00;102376.06;6097324;23;20377;-76
2022/09/22 04:04:32;;;;;;;31.75;24.85;;;;;;;4.16;100.00;102372.75;6097490;23;20050;-75
2022/09/22 04:06:58;;;;;;;32.83;26.35;;;;;;;4.19;100.00;102371.84;6096902;23;20033;-76
2022/09/22 04:09:23;;;;;;;34.15;26.10;;;;;;;4.16;100.00;102367.63;6097483;23;20049;-76
2022/09/22 04:11:48;;;;;;;34.45;26.55;;;;;;;4.11;100.00;102361.72;6071498;23;20065;-76
2022/09/22 04:14:14;;;;;;;30.95;25.38;;;;;;;4.00;100.00;102343.94;6096820;23;20014;-76
2022/09/22 04:16:41;;;;;;;32.50;25.67;;;;;;;4.14;100.00;102364.25;6070931;23;20149;-76
2022/09/22 04:19:07;;;;;;;33.88;26.83;;;;;;;4.15;100.00;102362.53;6097166;23;20034;-76
2022/09/22 04:21:32;;;;;;;31.17;24.55;;;;;;;4.05;100.00;102343.06;6097039;23;20026;-76
2022/09/22 04:23:58;;;;;;;30.95;25.13;;;;;;;4.07;100.00;102352.41;6097192;23;20002;-76
2022/09/22 04:26:23;;;;;;;33.00;27.17;;;;;;;4.14;100.00;102354.03;6096960;23;20495;-76
2022/09/22 04:28:48;;;;;;;38.17;26.10;;;;;;;4.11;100.00;102356.59;6096820;23;20034;-76
2022/09/22 04:31:14;;;;;;;33.47;25.35;;;;;;;4.12;100.00;102354.88;6096835;23;20091;-76
2022/09/22 04:33:39;;;;;;;32.35;25.98;;;;;;;4.11;100.00;102353.19;6097366;23;20037;-76
2022/09/22 04:36:05;;;;;;;29.80;25.35;;;;;;;4.09;100.00;102355.78;6096857;23;20026;-76
2022/09/22 04:38:30;;;;;;;31.63;25.55;;;;;;;4.07;100.00;102354.09;6071547;23;20445;-76
2022/09/22 04:40:56;;;;;;;32.08;26.05;;;;;;;4.08;100.00;102348.13;6096855;23;20041;-76
2022/09/22 04:43:21;;;;;;;31.55;25.55;;;;;;;4.02;100.00;102347.31;6096930;23;20174;-76
2022/09/22 04:45:47;;;;;;;31.17;26.23;;;;;;;4.05;100.00;102354.13;6096830;23;20006;-76
2022/09/22 04:48:13;;;;;;;34.28;25.83;;;;;;;4.06;100.00;102349.84;6097213;23;20009;-76
2022/09/22 04:50:39;;;;;;;32.10;25.73;;;;;;;4.06;100.00;102350.69;6096687;23;20336;-76
2022/09/22 04:53:04;;;;;;;33.75;26.45;;;;;;;4.03;100.00;102353.28;6096850;23;20085;-77
2022/09/22 04:55:29;;;;;;;32.03;25.20;;;;;;;4.03;100.00;102355.81;6096958;23;20002;-76
2022/09/22 04:57:55;;;;;;;29.45;25.55;;;;;;;4.00;100.00;102351.59;6096889;23;20379;-76
2022/09/22 05:00:24;;;;;;;32.45;26.38;;;;;;;4.01;100.00;102365.22;6096563;23;20492;-77
2022/09/22 05:02:50;;;;;;;32.13;25.13;;;;;;;3.95;100.00;102348.28;6096706;23;20492;-76
2022/09/22 05:05:15;;;;;;;33.40;27.33;;;;;;;3.96;100.00;102359.34;6097147;23;20029;-76
2022/09/22 05:07:44;;;;;;;32.08;25.98;;;;;;;3.98;100.00;102355.06;6096934;23;20003;-76
2022/09/22 05:10:10;;;;;;;33.35;26.23;;;;;;;3.93;100.00;102352.56;6096797;23;20006;-75
2022/09/22 05:12:41;;;;;;;36.63;26.63;;;;;;;3.97;100.00;102363.59;6096723;23;20015;-75
2022/09/22 05:15:08;;;;;;;34.40;26.73;;;;;;;3.96;100.00;102362.75;6096628;23;20030;-75
2022/09/22 05:17:35;;;;;;;33.20;26.30;;;;;;;3.84;100.00;102344.16;6096545;23;20013;-76
2022/09/22 05:20:04;;;;;;;34.13;27.05;;;;;;;3.96;100.00;102359.34;6096809;23;20013;-77
2022/09/22 05:22:30;;;;;;;32.72;25.80;;;;;;;3.95;100.00;102360.22;6071136;23;20015;-77
2022/09/22 05:24:56;;;;;;;33.63;26.98;;;;;;;3.95;100.00;102361.06;6096736;23;20006;-72
2022/09/22 05:27:21;;;;;;;33.40;27.30;;;;;;;3.59;100.00;102302.66;6097055;23;20105;-76
2022/09/22 05:29:46;;;;;;;33.03;27.17;;;;;;;3.96;100.00;102365.28;6097399;23;20018;-76
2022/09/22 05:32:12;;;;;;;38.95;27.85;;;;;;;3.97;100.00;102366.13;6098480;23;20104;-77
2022/09/22 05:34:37;;;;;;;36.38;27.45;;;;;;;3.98;100.00;102370.38;6098443;23;20003;-76
2022/09/22 05:37:02;;;;;;;34.60;27.38;;;;;;;4.02;100.00;102367.75;6098463;23;20082;-77
2022/09/22 05:39:28;;;;;;;35.15;27.10;;;;;;;4.03;100.00;102361.81;6098543;23;20010;-77
2022/09/22 05:41:53;;;;;;;33.80;27.70;;;;;;;4.06;100.00;102370.31;6072250;23;20018;-76
2022/09/22 05:44:20;;;;;;;36.75;26.55;;;;;;;4.11;100.00;102365.97;6098451;23;20013;-77
2022/09/22 05:46:46;;;;;;;33.40;26.38;;;;;;;4.12;100.00;102368.50;6097844;23;20085;-77
2022/09/22 05:49:11;;;;;;;33.72;28.30;;;;;;;4.04;100.00;102347.31;6098304;23;20094;-77
2022/09/22 05:51:36;;;;;;;39.58;29.17;;;;;;;4.16;100.00;102364.22;6098120;23;20010;-77
2022/09/22 05:54:02;;;;;;;35.13;26.73;;;;;;;4.23;100.00;102368.41;6097150;23;20010;-75
2022/09/22 05:56:27;;;;;;;35.78;27.30;;;;;;;4.27;100.00;102372.59;6098533;23;20085;-76
2022/09/22 05:58:53;;;;;;;32.08;27.48;;;;;;;4.31;100.00;102379.38;6098297;23;20014;-76
2022/09/22 06:01:18;;;;;;;34.75;26.88;;;;;;;4.36;100.00;102371.66;6097964;23;20006;-76
2022/09/22 06:03:43;;;;;;;36.50;26.83;;;;;;;4.39;100.00;102371.59;6098059;23;20002;-77
2022/09/22 06:06:09;;;;;;;35.35;27.88;;;;;;;4.46;100.00;102371.53;6098060;23;20127;-77
2022/09/22 06:08:34;;;;;;;34.58;28.05;;;;;;;4.53;100.00;102372.28;6098335;23;20338;-78
2022/09/22 06:10:59;;;;;;;38.70;30.00;;;;;;;4.63;100.00;102378.97;6098146;23;20338;-77
2022/09/22 06:13:25;;;;;;;34.80;29.23;;;;;;;4.67;100.00;102380.63;6071655;23;20373;-77
2022/09/22 06:15:50;;;;;;;36.70;28.98;;;;;;;4.73;100.00;102374.59;6097730;23;20025;-76
2022/09/22 06:18:19;;;;;;;37.72;29.98;;;;;;;4.65;100.00;102356.78;6097748;23;20416;-78
2022/09/22 06:20:45;;;;;;;37.47;29.10;;;;;;;4.89;100.00;102381.16;6098392;23;20376;-78
2022/09/22 06:23:14;;;;;;;39.90;29.05;;;;;;;4.98;100.00;102377.63;6098341;23;20085;-78
2022/09/22 06:25:41;;;;;;;41.22;32.88;;;;;;;5.13;100.00;102382.53;6098294;23;20013;-78
2022/09/22 06:28:10;;;;;;;39.53;32.67;;;;;;;5.12;100.00;102345.00;6098187;23;20074;-78
2022/09/22 06:30:38;;;;;;;43.80;32.53;;;;;;;5.40;100.00;102373.53;6097720;23;20002;-78
2022/09/22 06:33:04;;;;;;;44.92;33.53;;;;;;;5.66;100.00;102367.97;6097755;23;20065;-78
2022/09/22 06:35:36;;;;;;;46.85;36.15;;;;;;;6.57;100.00;102350.78;6098065;23;20014;-77
2022/09/22 06:38:04;;;;;;;43.05;33.50;;;;;;;8.38;100.00;102359.06;6071814;23;20013;-78
2022/09/22 06:40:31;;;;;;;35.95;27.73;;;;;;;9.71;93.38;102334.97;6096952;23;20002;-76
2022/09/22 06:42:58;;;;;;;29.35;23.85;;;;;;;11.06;85.57;102356.56;6097685;23;20520;-78
2022/09/22 06:45:26;;;;;;;26.42;21.75;;;;;;;12.10;80.04;102341.81;6097727;23;20310;-77
2022/09/22 06:48:01;;;;;;;25.10;19.98;;;;;;;12.96;77.25;102336.84;6070904;23;20010;-77
2022/09/22 06:50:31;;;;;;;22.23;18.73;;;;;;;13.62;71.83;102349.97;6098029;23;20009;-79
2022/09/22 06:53:02;;;;;;;22.45;18.25;;;;;;;13.20;71.22;102358.19;6097628;23;20341;-78
2022/09/22 06:55:29;;;;;;;22.40;19.02;;;;;;;12.11;74.49;102361.59;6071432;23;20017;-78
2022/09/22 06:57:58;;;;;;;24.02;19.33;;;;;;;11.06;78.14;102362.59;6097658;23;20369;-78
2022/09/22 07:00:29;;;;;;;23.85;20.08;;;;;;;10.29;81.36;102356.13;6097611;23;20306;-78
2022/09/22 07:03:19;;;;;;;25.08;21.60;;;;;;;9.68;85.36;102351.41;6071873;23;20011;-79
2022/09/22 07:06:02;;;;;;;27.77;22.95;;;;;;;9.23;88.37;102361.53;6097683;23;20455;-79
2022/09/22 07:08:29;;;;;;;30.02;24.02;;;;;;;8.81;89.75;102356.00;6097478;23;20077;-79
2022/09/22 07:10:57;;;;;;;29.75;25.85;;;;;;;8.64;91.88;102359.09;6097210;23;20793;-80
2022/09/22 07:13:24;;;;;;;29.70;25.33;;;;;;;8.50;93.26;102362.09;6097581;23;20003;-80
2022/09/22 07:15:50;;;;;;;55.15;28.27;;;;;;;8.38;94.51;102348.75;6071283;23;20010;-80
2022/09/22 07:18:15;;;;;;;31.83;27.30;;;;;;;8.26;95.20;102345.63;6097136;23;20077;-80
2022/09/22 07:20:44;;;;;;;34.25;28.90;;;;;;;8.18;95.47;102346.75;6097418;23;20012;-80
2022/09/22 07:23:17;;;;;;;34.67;29.90;;;;;;;8.17;97.28;102343.31;6096997;23;20009;-79
2022/09/22 07:25:43;;;;;;;37.08;29.58;;;;;;;8.24;97.60;102352.53;6097363;23;20006;-79
2022/09/22 07:28:11;;;;;;;34.95;29.35;;;;;;;8.26;98.01;102355.94;6097645;23;20002;-80
2022/09/22 07:30:39;;;;;;;36.17;29.90;;;;;;;8.27;98.44;102352.47;6097327;23;20025;-77
2022/09/22 07:33:04;;;;;;;42.05;31.63;;;;;;;8.25;98.76;102341.34;6096982;23;20466;-77
2022/09/22 07:35:30;;;;;;;35.80;30.20;;;;;;;8.35;98.57;102354.81;6097365;23;20025;-79
2022/09/22 07:37:58;;;;;;;38.00;31.20;;;;;;;8.07;98.32;102293.00;6097361;23;20018;-79
2022/09/22 07:40:23;;;;;;;38.10;30.85;;;;;;;8.51;98.69;102353.50;6097292;23;20006;-80
2022/09/22 07:42:49;;;;;;;34.15;30.45;;;;;;;8.55;98.79;102349.06;6097217;23;20441;-80
2022/09/22 07:45:15;;;;;;;35.20;30.42;;;;;;;8.53;99.21;102338.00;6097548;23;20429;-79
2022/09/22 07:50:28;;;;;;;37.38;31.50;;;;;;;8.70;99.01;102335.75;6097219;23;20042;-80
2022/09/22 07:52:54;;;;;;;36.50;31.02;;;;;;;8.82;98.10;102352.56;6071188;23;20025;-79
2022/09/22 07:55:22;;;;;;;36.05;30.65;;;;;;;8.95;98.78;102353.00;6097082;23;20417;-79
2022/09/22 07:57:58;;;;;;;34.83;30.83;;;;;;;8.99;97.66;102354.59;6097466;23;20157;-79
2022/09/22 08:00:26;;;;;;;36.55;31.63;;;;;;;9.07;98.80;102353.47;6097131;23;20006;-77
2022/09/22 08:02:56;;;;;;;36.22;29.85;;;;;;;9.12;98.16;102348.16;6097189;23;20332;-78
2022/09/22 08:05:23;;;;;;;35.80;28.58;;;;;;;9.23;97.41;102353.78;6097205;23;20006;-82
2022/09/22 08:07:49;;;;;;;37.03;30.42;;;;;;;9.34;97.22;102346.56;6071671;23;20030;-79
2022/09/22 08:10:15;;;;;;;35.72;28.38;;;;;;;9.28;96.79;102313.25;6097100;23;20033;-78
2022/09/22 08:12:41;;;;;;;36.38;30.10;;;;;;;9.35;97.68;102308.75;6096999;23;20014;-77
2022/09/22 08:15:07;;;;;;;36.67;30.13;;;;;;;9.60;95.89;102339.66;6097214;23;20013;-78
2022/09/22 08:17:32;;;;;;;33.17;27.52;;;;;;;9.67;95.33;102339.41;6096725;23;20006;-78
2022/09/22 08:20:01;;;;;;;31.20;26.63;;;;;;;9.73;95.42;102339.22;6096706;23;20073;-77
2022/09/22 08:22:27;;;;;;;34.72;27.98;;;;;;;9.68;95.33;102309.28;6097006;23;20073;-77
2022/09/22 08:24:53;;;;;;;32.85;28.13;;;;;;;9.93;94.74;102332.47;6071573;23;20057;-77
2022/09/22 08:27:18;;;;;;;29.58;26.30;;;;;;;10.01;94.35;102333.88;6096973;23;20378;-76
2022/09/22 08:29:45;;;;;;;31.85;27.95;;;;;;;10.01;95.17;102312.38;6097029;23;20007;-79
2022/09/22 08:32:11;;;;;;;31.05;26.20;;;;;;;10.15;94.09;102322.22;6097272;23;20033;-79
2022/09/22 08:34:37;;;;;;;30.65;26.08;;;;;;;10.26;94.60;102331.28;6096701;23;20003;-78
2022/09/22 08:37:02;;;;;;;26.95;23.85;;;;;;;10.31;92.63;102324.16;6096956;23;20082;-77
2022/09/22 08:39:29;;;;;;;28.67;24.48;;;;;;;10.38;92.79;102317.03;6097089;23;20058;-78
2022/09/22 08:42:08;;;;;;;27.52;23.05;;;;;;;10.55;92.22;102327.56;6070817;23;20018;-76
2022/09/22 08:44:48;;;;;;;26.25;23.45;;;;;;;10.63;91.12;102329.88;6096833;23;20007;-76
2022/09/22 08:51:50;;;;;;;31.30;25.33;;;;;;;10.67;91.75;102320.25;6096897;23;20412;-77
2022/09/22 08:53:08;;;;;;;25.65;21.60;;;;;;;10.39;91.24;102240.41;6097128;23;20021;-76
2022/09/22 08:55:36;;;;;;;26.80;22.05;;;;;;;10.94;90.92;102320.88;6096884;23;20007;-77
2022/09/22 08:58:21;;;;;;;26.88;21.88;;;;;;;11.03;89.57;102316.19;6096814;23;20130;-77
2022/09/22 09:00:57;;;;;;;23.67;20.83;;;;;;;11.06;87.94;102308.28;6097141;23;20437;-76
2022/09/22 09:03:53;;;;;;;25.00;21.45;;;;;;;11.25;89.12;102331.66;6096558;23;20002;-76
2022/09/22 09:06:39;;;;;;;24.50;20.17;;;;;;;11.35;88.28;102337.28;6098779;23;20420;-77
2022/09/22 09:09:57;;;;;;;27.23;22.83;;;;;;;11.35;89.41;102314.84;6097942;23;20021;-75
2022/09/22 09:12:34;;;;;;;24.30;20.30;;;;;;;11.61;88.48;102338.75;6038749;23;20086;-76
2022/09/22 09:15:08;;;;;;;26.75;22.00;;;;;;;11.68;87.11;102338.41;6038989;23;20007;-76
2022/09/22 09:17:37;;;;;;;23.67;21.02;;;;;;;11.67;86.02;102323.78;6038888;23;20007;-76
2022/09/22 09:20:25;;;;;;;25.60;22.15;;;;;;;11.83;85.88;102333.50;6038391;23;20099;-76
2022/09/22 09:22:56;;;;;;;23.90;20.85;;;;;;;11.92;86.87;102333.09;6038886;23;20326;-77
2022/09/22 09:25:33;;;;;;;27.50;21.02;;;;;;;12.07;86.60;102330.66;6038796;23;20338;-76
2022/09/22 09:28:03;;;;;;;30.05;21.05;;;;;;;12.02;85.28;102305.91;6038829;23;20034;-77
2022/09/22 09:30:40;;;;;;;23.50;20.58;;;;;;;12.18;84.46;102324.16;6038369;23;20040;-77
2022/09/22 09:33:17;;;;;;;24.52;21.10;;;;;;;12.20;84.60;102314.56;6038570;23;20446;-77
2022/09/22 09:35:51;;;;;;;26.10;20.90;;;;;;;12.31;84.65;102320.94;6038448;23;20007;-76
2022/09/22 09:38:24;;;;;;;22.15;19.77;;;;;;;12.19;82.71;102286.97;6038588;23;20011;-76
2022/09/22 09:40:55;;;;;;;21.00;18.65;;;;;;;12.56;85.32;102323.19;6038459;23;20021;-76
2022/09/22 09:43:22;;;;;;;22.52;19.45;;;;;;;12.55;81.70;102310.31;6038401;23;20042;-76
2022/09/22 09:46:02;;;;;;;22.70;18.80;;;;;;;12.66;82.81;102313.22;6038459;23;20007;-76
2022/09/22 09:48:47;;;;;;;17.95;13.93;;;;;;;12.74;81.26;102312.88;6051061;23;20014;-77
2022/09/22 09:51:13;;;;;;;23.27;16.85;;;;;;;12.91;80.73;102325.88;6098211;23;20002;-79
2022/09/22 09:53:45;;;;;;;19.38;16.13;;;;;;;13.01;80.87;102305.50;6098357;23;20007;-81
2022/09/22 09:56:32;;;;;;;20.13;15.25;;;;;;;13.19;80.00;102323.63;6098361;23;20006;-81
2022/09/22 10:01:49;;;;;;;16.20;14.30;;;;;;;13.21;75.14;102307.97;6098454;23;20030;-79
2022/09/22 10:04:34;;;;;;;17.77;14.05;;;;;;;13.36;76.38;102314.97;6098007;23;20010;-79
2022/09/22 10:07:10;;;;;;;19.00;14.13;;;;;;;13.53;76.94;102313.28;6098427;23;20077;-80
2022/09/22 10:09:35;;;;;;;19.13;14.82;;;;;;;13.56;75.56;102303.56;6098206;23;20515;-79
2022/09/22 10:12:02;;;;;;;16.25;14.55;;;;;;;13.66;76.29;102306.50;6097802;23;20014;-79
2022/09/22 10:14:33;;;;;;;19.00;14.55;;;;;;;13.66;75.33;102284.00;6097918;23;20003;-79
2022/09/22 10:16:59;;;;;;;19.80;15.07;;;;;;;13.93;73.72;102307.66;6098310;23;20365;-78
2022/09/22 10:19:29;;;;;;;16.00;13.18;;;;;;;13.87;74.19;102283.78;6097874;23;20010;-80
2022/09/22 10:22:25;;;;;;;15.47;13.20;;;;;;;14.02;74.23;102311.53;6098046;23;20003;-79
2022/09/22 10:25:02;;;;;;;16.92;13.45;;;;;;;14.08;72.64;102308.59;6098141;23;20078;-79
2022/09/22 10:27:30;;;;;;;17.17;13.20;;;;;;;14.09;70.77;102302.50;6097670;23;20010;-79
2022/09/22 10:30:10;;;;;;;14.95;12.20;;;;;;;14.14;71.79;102297.03;6098364;23;20009;-80
2022/09/22 10:32:36;;;;;;;19.90;12.60;;;;;;;13.96;71.22;102260.75;6097772;23;20010;-78
2022/09/22 10:35:26;;;;;;;15.40;12.73;;;;;;;14.20;72.40;102297.53;6097791;23;20007;-79
2022/09/22 10:37:56;;;;;;;17.50;12.23;;;;;;;14.20;70.50;102275.91;6097834;23;20010;-79
2022/09/22 10:40:22;;;;;;;10.63;7.20;;;;;;;14.31;66.72;102279.59;6097581;23;20102;-79
2022/09/22 10:42:51;;;;;;;8.57;4.85;;;;;;;14.50;65.16;102284.63;6098101;23;20013;-78
2022/09/22 10:45:18;;;;;;;6.85;3.60;;;;;;;14.49;62.31;102261.34;6097907;23;20002;-77
2022/09/22 10:48:02;;;;;;;6.70;3.65;;;;;;;14.62;63.78;102286.53;6098046;23;20350;-78
2022/09/22 10:50:34;;;;;;;8.60;6.00;;;;;;;14.65;63.73;102267.34;6097405;23;20006;-78
2022/09/22 10:53:17;;;;;;;8.52;4.93;;;;;;;14.82;64.80;102279.34;6097545;23;20085;-81
2022/09/22 10:56:02;;;;;;;7.18;4.13;;;;;;;14.89;62.81;102281.53;6097604;23;20009;-78
2022/09/22 10:58:43;;;;;;;6.60;3.75;;;;;;;14.80;63.80;102260.41;6097941;23;20008;-78
2022/09/22 11:01:54;;;;;;;8.03;3.97;;;;;;;14.86;63.98;102275.66;6097628;23;20018;-78
2022/09/22 11:04:39;;;;;;;7.45;3.90;;;;;;;14.85;62.41;102266.19;6091821;23;20013;-79
2022/09/22 11:13:39;;;;;;;5.90;3.47;;;;;;;14.96;63.81;102260.38;6097405;23;20092;-77
2022/09/22 11:16:22;;;;;;;5.65;3.60;;;;;;;15.03;62.09;102259.06;6097879;23;20062;-79
2022/09/22 11:18:56;;;;;;;6.53;3.35;;;;;;;14.89;61.54;102229.50;6097343;23;20089;-78
2022/09/22 11:21:39;;;;;;;6.57;4.00;;;;;;;15.19;60.94;102265.88;6071654;23;20103;-78
2022/09/22 11:24:37;;;;;;;5.72;3.38;;;;;;;15.27;61.56;102268.03;6097366;23;20006;-77
2022/09/22 11:27:03;;;;;;;6.90;4.00;;;;;;;15.17;56.48;102238.28;5980655;24;20439;-81
2022/09/22 11:29:50;;;;;;;7.15;3.20;;;;;;;15.37;60.36;102255.31;5980927;24;20008;-79
2022/09/22 11:32:36;;;;;;;5.10;2.90;;;;;;;15.49;59.82;102249.34;5980889;24;20375;-78
2022/09/22 11:35:29;;;;;;;8.10;3.10;;;;;;;15.59;60.51;102249.63;5980608;24;20016;-80
2022/09/22 11:38:13;;;;;;;7.80;3.42;;;;;;;15.64;59.39;102248.44;5957373;24;20012;-79
2022/09/22 11:41:09;;;;;;;5.18;2.85;;;;;;;15.52;58.62;102211.84;5980859;24;20027;-79
2022/09/22 11:43:52;;;;;;;6.03;3.65;;;;;;;15.76;59.07;102237.25;5980747;24;20016;-79